Hovedside
METAR-TAF:

METAR-TAF

Lufthavner :

Kirkenes, Norge

Kirkenes lufthavn

breddegrad: 69-44N, lengdegrad: 029-54E, høyde over havet: 9 m

Gjeldene værobservasjon

Denne rapporten ble laget for 1 time og 13 minutter siden, klokken 09:50 UTC
Vind 19 kt fra Nordøst
Temperatur 1°C
Luftfuktighet 64%
Trykk 1008 hPa
Sikt 10 km eller mer
Få skyer i en høyde av 2700 ft
Brutte skyer i en høyde av 3900 ft

METAR: ENKR 270950Z 04019KT 9999 FEW027 BKN039 01/M05 Q1008 RMK WIND 731FT 05023KT

Tid: 13:03 (11:03 UTC)

Varsel

Denne rapporten ble laget for 3 timer og 3 minutter siden, klokken 08:00 UTC
Varsel gyldig fra 27. klokken 09 UTC til 27. klokken 18 UTC
Vind 20 kt fra Nordøst
Sikt 10 km eller mer
Spredte skyer i en høyde av 2500 ft
Brutte skyer i en høyde av 3500 ft

TAF: ENKR 270800Z 2709/2718 05020KT 9999 SCT025 BKN035

Værobservasjoner og værvarsel for over 4000 flyplasser (METAR- og TAF-rapporter).

Tilgjengelige stasjoner er representert av de røde og gule prikkene på kartet.

Hold musepekeren over prikken for å se navnet på stasjonen.

Klikk så for å se værobservasjoner og -varsler.

For å forandre kartet kan du klikke på den grønne knappen med svart kryss for å zoome inn, på den grønne knappen med strek for å zoome ut, eller på de grønne pilene for å se tilstøtende kart.


METAR-TAF: